sensor_id;sensor_type;location;lat;lon;timestamp;temperature;humidity
2653;DHT22;1336;48.692;9.144;2022-10-16T05:00:20;16.70;97.20
2653;DHT22;1336;48.692;9.144;2022-10-16T05:01:12;16.70;97.20
2653;DHT22;1336;48.692;9.144;2022-10-16T05:02:03;16.70;97.20
2653;DHT22;1336;48.692;9.144;2022-10-16T05:02:55;16.70;97.20
2653;DHT22;1336;48.692;9.144;2022-10-16T05:03:46;16.70;97.20
2653;DHT22;1336;48.692;9.144;2022-10-16T05:04:37;16.70;97.20
2653;DHT22;1336;48.692;9.144;2022-10-16T05:05:28;16.70;97.20
2653;DHT22;1336;48.692;9.144;2022-10-16T05:06:20;16.70;97.20
2653;DHT22;1336;48.692;9.144;2022-10-16T05:07:10;16.70;97.20
2653;DHT22;1336;48.692;9.144;2022-10-16T05:08:03;16.60;97.20
2653;DHT22;1336;48.692;9.144;2022-10-16T05:08:54;16.60;97.20
2653;DHT22;1336;48.692;9.144;2022-10-16T05:09:46;16.60;97.20
2653;DHT22;1336;48.692;9.144;2022-10-16T05:10:36;16.60;97.20
2653;DHT22;1336;48.692;9.144;2022-10-16T05:11:28;16.60;97.20
2653;DHT22;1336;48.692;9.144;2022-10-16T05:12:19;16.60;97.20
2653;DHT22;1336;48.692;9.144;2022-10-16T05:13:11;16.60;97.20
2653;DHT22;1336;48.692;9.144;2022-10-16T05:14:02;16.60;97.20
2653;DHT22;1336;48.692;9.144;2022-10-16T05:14:54;16.60;97.20
2653;DHT22;1336;48.692;9.144;2022-10-16T05:15:50;16.60;97.20
2653;DHT22;1336;48.692;9.144;2022-10-16T05:16:41;16.60;97.20
2653;DHT22;1336;48.692;9.144;2022-10-16T05:17:32;16.60;97.20
2653;DHT22;1336;48.692;9.144;2022-10-16T05:18:24;16.60;97.20
2653;DHT22;1336;48.692;9.144;2022-10-16T05:19:14;16.60;97.20
2653;DHT22;1336;48.692;9.144;2022-10-16T05:20:07;16.50;97.20
2653;DHT22;1336;48.692;9.144;2022-10-16T05:20:57;16.50;97.20
2653;DHT22;1336;48.692;9.144;2022-10-16T05:21:49;16.50;97.20
2653;DHT22;1336;48.692;9.144;2022-10-16T05:22:40;16.50;97.20
2653;DHT22;1336;48.692;9.144;2022-10-16T05:23:32;16.50;97.20
2653;DHT22;1336;48.692;9.144;2022-10-16T05:24:23;16.50;97.20
2653;DHT22;1336;48.692;9.144;2022-10-16T05:25:15;16.50;97.20
2653;DHT22;1336;48.692;9.144;2022-10-16T05:26:05;16.40;97.20
2653;DHT22;1336;48.692;9.144;2022-10-16T05:26:57;16.50;97.20
2653;DHT22;1336;48.692;9.144;2022-10-16T05:27:48;16.40;97.20
2653;DHT22;1336;48.692;9.144;2022-10-16T05:28:40;16.40;97.20
2653;DHT22;1336;48.692;9.144;2022-10-16T05:29:31;16.50;97.20
2653;DHT22;1336;48.692;9.144;2022-10-16T05:30:23;16.50;97.20
2653;DHT22;1336;48.692;9.144;2022-10-16T05:31:15;16.50;97.20
2653;DHT22;1336;48.692;9.144;2022-10-16T05:32:08;16.50;97.20
2653;DHT22;1336;48.692;9.144;2022-10-16T05:32:59;16.50;97.20
2653;DHT22;1336;48.692;9.144;2022-10-16T05:33:50;16.50;97.20
2653;DHT22;1336;48.692;9.144;2022-10-16T05:34:41;16.50;97.20
2653;DHT22;1336;48.692;9.144;2022-10-16T05:35:34;16.50;97.20
2653;DHT22;1336;48.692;9.144;2022-10-16T05:36:24;16.50;97.20
2653;DHT22;1336;48.692;9.144;2022-10-16T05:37:15;16.50;97.20
2653;DHT22;1336;48.692;9.144;2022-10-16T05:38:07;16.50;97.20
2653;DHT22;1336;48.692;9.144;2022-10-16T05:38:57;16.50;97.20
2653;DHT22;1336;48.692;9.144;2022-10-16T05:39:49;16.50;97.20
2653;DHT22;1336;48.692;9.144;2022-10-16T05:40:40;16.50;97.20
2653;DHT22;1336;48.692;9.144;2022-10-16T05:41:32;16.50;97.20
2653;DHT22;1336;48.692;9.144;2022-10-16T05:42:22;16.50;97.20
2653;DHT22;1336;48.692;9.144;2022-10-16T05:43:14;16.50;97.20
2653;DHT22;1336;48.692;9.144;2022-10-16T05:44:05;16.50;97.20
2653;DHT22;1336;48.692;9.144;2022-10-16T05:44:57;16.50;97.20
2653;DHT22;1336;48.692;9.144;2022-10-16T05:45:54;16.50;97.20
2653;DHT22;1336;48.692;9.144;2022-10-16T05:46:47;16.50;97.20
2653;DHT22;1336;48.692;9.144;2022-10-16T05:47:39;16.50;97.20
2653;DHT22;1336;48.692;9.144;2022-10-16T05:48:30;16.50;97.20
2653;DHT22;1336;48.692;9.144;2022-10-16T05:49:22;16.50;97.20
2653;DHT22;1336;48.692;9.144;2022-10-16T05:50:13;16.50;97.20
2653;DHT22;1336;48.692;9.144;2022-10-16T05:51:06;16.50;97.20
2653;DHT22;1336;48.692;9.144;2022-10-16T05:51:57;16.40;97.20
2653;DHT22;1336;48.692;9.144;2022-10-16T05:52:49;16.40;97.20
2653;DHT22;1336;48.692;9.144;2022-10-16T05:53:40;16.40;97.20
2653;DHT22;1336;48.692;9.144;2022-10-16T05:54:32;16.40;97.20
2653;DHT22;1336;48.692;9.144;2022-10-16T05:55:23;16.40;97.20
2653;DHT22;1336;48.692;9.144;2022-10-16T05:56:15;16.40;97.20
2653;DHT22;1336;48.692;9.144;2022-10-16T05:57:06;16.40;97.20
2653;DHT22;1336;48.692;9.144;2022-10-16T05:57:57;16.40;97.20
2653;DHT22;1336;48.692;9.144;2022-10-16T05:58:48;16.40;97.20
2653;DHT22;1336;48.692;9.144;2022-10-16T05:59:40;16.40;97.20
2653;DHT22;1336;48.692;9.144;2022-10-16T06:00:30;16.40;97.20
2653;DHT22;1336;48.692;9.144;2022-10-16T06:01:22;16.40;97.20
2653;DHT22;1336;48.692;9.144;2022-10-16T06:02:16;16.40;97.20
2653;DHT22;1336;48.692;9.144;2022-10-16T06:03:08;16.40;97.20
2653;DHT22;1336;48.692;9.144;2022-10-16T06:03:59;16.40;97.20
2653;DHT22;1336;48.692;9.144;2022-10-16T06:04:51;16.40;97.20
2653;DHT22;1336;48.692;9.144;2022-10-16T06:05:44;16.40;97.20
2653;DHT22;1336;48.692;9.144;2022-10-16T06:06:36;16.50;97.20
2653;DHT22;1336;48.692;9.144;2022-10-16T06:07:26;16.50;97.20
2653;DHT22;1336;48.692;9.144;2022-10-16T06:08:19;16.50;97.20
2653;DHT22;1336;48.692;9.144;2022-10-16T06:09:10;16.50;97.20
2653;DHT22;1336;48.692;9.144;2022-10-16T06:10:03;16.50;97.20
2653;DHT22;1336;48.692;9.144;2022-10-16T06:11:01;16.50;97.20
2653;DHT22;1336;48.692;9.144;2022-10-16T06:11:53;16.50;97.20
2653;DHT22;1336;48.692;9.144;2022-10-16T06:12:44;16.50;97.20
2653;DHT22;1336;48.692;9.144;2022-10-16T06:13:35;16.50;97.20
2653;DHT22;1336;48.692;9.144;2022-10-16T06:14:26;16.50;97.20
2653;DHT22;1336;48.692;9.144;2022-10-16T06:15:18;16.50;97.20
2653;DHT22;1336;48.692;9.144;2022-10-16T06:16:10;16.50;97.20
2653;DHT22;1336;48.692;9.144;2022-10-16T06:17:02;16.50;97.20
2653;DHT22;1336;48.692;9.144;2022-10-16T06:17:54;16.50;97.20
2653;DHT22;1336;48.692;9.144;2022-10-16T06:18:46;16.50;97.20
2653;DHT22;1336;48.692;9.144;2022-10-16T06:19:37;16.50;97.20
2653;DHT22;1336;48.692;9.144;2022-10-16T06:20:28;16.50;97.20
2653;DHT22;1336;48.692;9.144;2022-10-16T06:21:21;16.50;97.20
2653;DHT22;1336;48.692;9.144;2022-10-16T06:22:15;16.50;97.20
2653;DHT22;1336;48.692;9.144;2022-10-16T06:23:06;16.50;97.20
2653;DHT22;1336;48.692;9.144;2022-10-16T06:23:58;16.50;97.20
2653;DHT22;1336;48.692;9.144;2022-10-16T06:24:49;16.50;97.20
2653;DHT22;1336;48.692;9.144;2022-10-16T06:25:40;16.60;97.20
2653;DHT22;1336;48.692;9.144;2022-10-16T06:26:31;16.60;97.20
2653;DHT22;1336;48.692;9.144;2022-10-16T06:27:23;16.60;97.20
2653;DHT22;1336;48.692;9.144;2022-10-16T06:28:15;16.60;97.20
2653;DHT22;1336;48.692;9.144;2022-10-16T06:29:07;16.60;97.20
2653;DHT22;1336;48.692;9.144;2022-10-16T06:29:58;16.60;97.20
2653;DHT22;1336;48.692;9.144;2022-10-16T06:30:58;16.60;97.20
2653;DHT22;1336;48.692;9.144;2022-10-16T06:31:49;16.60;97.20
2653;DHT22;1336;48.692;9.144;2022-10-16T06:32:41;16.60;97.20
2653;DHT22;1336;48.692;9.144;2022-10-16T06:33:33;16.60;97.20
2653;DHT22;1336;48.692;9.144;2022-10-16T06:34:25;16.60;97.20
2653;DHT22;1336;48.692;9.144;2022-10-16T06:35:15;16.60;97.20
2653;DHT22;1336;48.692;9.144;2022-10-16T06:36:08;16.60;97.20
2653;DHT22;1336;48.692;9.144;2022-10-16T06:36:59;16.60;97.20
2653;DHT22;1336;48.692;9.144;2022-10-16T06:37:52;16.60;97.20
2653;DHT22;1336;48.692;9.144;2022-10-16T06:38:44;16.70;97.20
2653;DHT22;1336;48.692;9.144;2022-10-16T06:39:36;16.70;97.20
2653;DHT22;1336;48.692;9.144;2022-10-16T06:40:26;16.70;97.20
2653;DHT22;1336;48.692;9.144;2022-10-16T06:41:19;16.70;97.20
2653;DHT22;1336;48.692;9.144;2022-10-16T06:42:10;16.70;97.20
2653;DHT22;1336;48.692;9.144;2022-10-16T06:43:02;16.70;97.20
2653;DHT22;1336;48.692;9.144;2022-10-16T06:43:53;16.70;97.20
2653;DHT22;1336;48.692;9.144;2022-10-16T06:44:44;16.70;97.20
2653;DHT22;1336;48.692;9.144;2022-10-16T06:45:35;16.70;97.20
2653;DHT22;1336;48.692;9.144;2022-10-16T06:46:27;16.70;97.20
2653;DHT22;1336;48.692;9.144;2022-10-16T06:47:18;16.70;97.20
2653;DHT22;1336;48.692;9.144;2022-10-16T06:48:10;16.70;97.20
2653;DHT22;1336;48.692;9.144;2022-10-16T06:49:02;16.70;97.20
2653;DHT22;1336;48.692;9.144;2022-10-16T06:49:53;16.80;97.20
2653;DHT22;1336;48.692;9.144;2022-10-16T06:50:44;16.80;97.20
2653;DHT22;1336;48.692;9.144;2022-10-16T06:51:36;16.80;97.20
2653;DHT22;1336;48.692;9.144;2022-10-16T06:52:31;16.80;97.20
2653;DHT22;1336;48.692;9.144;2022-10-16T06:53:22;16.80;97.20
2653;DHT22;1336;48.692;9.144;2022-10-16T06:54:14;16.80;97.20
2653;DHT22;1336;48.692;9.144;2022-10-16T06:55:07;16.80;97.20
2653;DHT22;1336;48.692;9.144;2022-10-16T06:56:05;16.80;97.20
2653;DHT22;1336;48.692;9.144;2022-10-16T06:56:58;16.80;97.20
2653;DHT22;1336;48.692;9.144;2022-10-16T06:57:50;16.80;97.20
2653;DHT22;1336;48.692;9.144;2022-10-16T06:58:41;16.90;97.20
2653;DHT22;1336;48.692;9.144;2022-10-16T06:59:33;16.90;97.20
2653;DHT22;1336;48.692;9.144;2022-10-16T07:00:24;16.90;97.20
2653;DHT22;1336;48.692;9.144;2022-10-16T07:01:17;16.90;97.20
2653;DHT22;1336;48.692;9.144;2022-10-16T07:02:08;16.90;97.20
2653;DHT22;1336;48.692;9.144;2022-10-16T07:03:00;16.90;97.20
2653;DHT22;1336;48.692;9.144;2022-10-16T07:03:51;16.90;97.20
2653;DHT22;1336;48.692;9.144;2022-10-16T07:04:44;16.90;97.20
2653;DHT22;1336;48.692;9.144;2022-10-16T07:05:37;16.90;97.20
2653;DHT22;1336;48.692;9.144;2022-10-16T07:06:32;16.90;97.20
2653;DHT22;1336;48.692;9.144;2022-10-16T07:07:24;16.90;97.20
2653;DHT22;1336;48.692;9.144;2022-10-16T07:08:17;17.00;97.20
2653;DHT22;1336;48.692;9.144;2022-10-16T07:09:09;17.00;97.20
2653;DHT22;1336;48.692;9.144;2022-10-16T07:10:01;17.00;97.20
2653;DHT22;1336;48.692;9.144;2022-10-16T07:10:59;17.00;97.20
2653;DHT22;1336;48.692;9.144;2022-10-16T07:11:51;17.00;97.20
2653;DHT22;1336;48.692;9.144;2022-10-16T07:12:41;17.00;97.20
2653;DHT22;1336;48.692;9.144;2022-10-16T07:13:36;17.00;97.20
2653;DHT22;1336;48.692;9.144;2022-10-16T07:14:27;17.00;97.20
2653;DHT22;1336;48.692;9.144;2022-10-16T07:15:22;17.00;97.20
2653;DHT22;1336;48.692;9.144;2022-10-16T07:16:15;17.00;97.20
2653;DHT22;1336;48.692;9.144;2022-10-16T07:17:07;17.00;97.20
2653;DHT22;1336;48.692;9.144;2022-10-16T07:17:57;17.00;97.20
2653;DHT22;1336;48.692;9.144;2022-10-16T07:18:49;17.00;97.20
2653;DHT22;1336;48.692;9.144;2022-10-16T07:19:42;17.00;97.20
2653;DHT22;1336;48.692;9.144;2022-10-16T07:20:35;17.10;97.20
2653;DHT22;1336;48.692;9.144;2022-10-16T07:21:27;17.10;97.20
2653;DHT22;1336;48.692;9.144;2022-10-16T07:22:19;17.10;97.20
2653;DHT22;1336;48.692;9.144;2022-10-16T07:23:10;17.10;97.20
2653;DHT22;1336;48.692;9.144;2022-10-16T07:24:03;17.10;97.20
2653;DHT22;1336;48.692;9.144;2022-10-16T07:24:54;17.10;97.20
2653;DHT22;1336;48.692;9.144;2022-10-16T07:25:48;17.10;97.20
2653;DHT22;1336;48.692;9.144;2022-10-16T07:26:44;17.10;97.20
2653;DHT22;1336;48.692;9.144;2022-10-16T07:27:36;17.10;97.20
2653;DHT22;1336;48.692;9.144;2022-10-16T07:28:28;17.10;97.20
2653;DHT22;1336;48.692;9.144;2022-10-16T07:29:21;17.10;97.20
2653;DHT22;1336;48.692;9.144;2022-10-16T07:30:12;17.10;97.20
2653;DHT22;1336;48.692;9.144;2022-10-16T07:31:05;17.20;97.20
2653;DHT22;1336;48.692;9.144;2022-10-16T07:31:57;17.20;97.20
2653;DHT22;1336;48.692;9.144;2022-10-16T07:32:48;17.20;97.20
2653;DHT22;1336;48.692;9.144;2022-10-16T07:33:40;17.20;97.20
2653;DHT22;1336;48.692;9.144;2022-10-16T07:34:33;17.20;97.20
2653;DHT22;1336;48.692;9.144;2022-10-16T07:35:24;17.20;97.20
2653;DHT22;1336;48.692;9.144;2022-10-16T07:36:18;17.20;97.20
2653;DHT22;1336;48.692;9.144;2022-10-16T07:37:09;17.20;97.20
2653;DHT22;1336;48.692;9.144;2022-10-16T07:38:01;17.20;97.20
2653;DHT22;1336;48.692;9.144;2022-10-16T07:38:51;17.20;97.20
2653;DHT22;1336;48.692;9.144;2022-10-16T07:39:43;17.20;97.20
2653;DHT22;1336;48.692;9.144;2022-10-16T07:40:34;17.20;97.20
2653;DHT22;1336;48.692;9.144;2022-10-16T07:41:26;17.20;97.20
2653;DHT22;1336;48.692;9.144;2022-10-16T07:42:17;17.20;97.20
2653;DHT22;1336;48.692;9.144;2022-10-16T07:43:10;17.30;97.20
2653;DHT22;1336;48.692;9.144;2022-10-16T07:44:01;17.30;97.20
2653;DHT22;1336;48.692;9.144;2022-10-16T07:44:53;17.30;97.20
2653;DHT22;1336;48.692;9.144;2022-10-16T07:45:47;17.30;97.20
2653;DHT22;1336;48.692;9.144;2022-10-16T07:46:39;17.30;97.20
2653;DHT22;1336;48.692;9.144;2022-10-16T07:47:30;17.30;97.20
2653;DHT22;1336;48.692;9.144;2022-10-16T07:48:23;17.30;97.20
2653;DHT22;1336;48.692;9.144;2022-10-16T07:49:14;17.30;97.20
2653;DHT22;1336;48.692;9.144;2022-10-16T07:50:07;17.30;97.20
2653;DHT22;1336;48.692;9.144;2022-10-16T07:50:58;17.30;97.20
2653;DHT22;1336;48.692;9.144;2022-10-16T07:51:51;17.30;97.20
2653;DHT22;1336;48.692;9.144;2022-10-16T07:52:42;17.30;97.20
2653;DHT22;1336;48.692;9.144;2022-10-16T07:53:33;17.40;97.20
2653;DHT22;1336;48.692;9.144;2022-10-16T07:54:25;17.40;97.20
2653;DHT22;1336;48.692;9.144;2022-10-16T07:55:16;17.40;97.20
2653;DHT22;1336;48.692;9.144;2022-10-16T07:56:08;17.40;97.20
2653;DHT22;1336;48.692;9.144;2022-10-16T07:56:58;17.40;97.20
2653;DHT22;1336;48.692;9.144;2022-10-16T07:57:50;17.40;97.20
2653;DHT22;1336;48.692;9.144;2022-10-16T07:58:41;17.40;97.20
2653;DHT22;1336;48.692;9.144;2022-10-16T07:59:32;17.40;97.20
2653;DHT22;1336;48.692;9.144;2022-10-16T08:00:23;17.40;97.20
2653;DHT22;1336;48.692;9.144;2022-10-16T08:01:16;17.40;97.20
2653;DHT22;1336;48.692;9.144;2022-10-16T08:02:07;17.40;97.20
2653;DHT22;1336;48.692;9.144;2022-10-16T08:02:59;17.40;97.20
2653;DHT22;1336;48.692;9.144;2022-10-16T08:03:52;17.50;97.20
2653;DHT22;1336;48.692;9.144;2022-10-16T08:04:46;17.50;97.20
2653;DHT22;1336;48.692;9.144;2022-10-16T08:05:37;17.50;97.20
2653;DHT22;1336;48.692;9.144;2022-10-16T08:06:29;17.50;97.20
2653;DHT22;1336;48.692;9.144;2022-10-16T08:07:26;17.50;97.20
2653;DHT22;1336;48.692;9.144;2022-10-16T08:08:18;17.50;97.20
2653;DHT22;1336;48.692;9.144;2022-10-16T08:09:09;17.50;97.20
2653;DHT22;1336;48.692;9.144;2022-10-16T08:10:01;17.50;97.20
2653;DHT22;1336;48.692;9.144;2022-10-16T08:10:53;17.50;97.20
2653;DHT22;1336;48.692;9.144;2022-10-16T08:11:45;17.50;97.20
2653;DHT22;1336;48.692;9.144;2022-10-16T08:12:36;17.50;97.20
2653;DHT22;1336;48.692;9.144;2022-10-16T08:13:28;17.50;97.20
2653;DHT22;1336;48.692;9.144;2022-10-16T08:14:18;17.50;97.20
2653;DHT22;1336;48.692;9.144;2022-10-16T08:15:10;17.50;97.20
2653;DHT22;1336;48.692;9.144;2022-10-16T08:16:01;17.50;97.20
2653;DHT22;1336;48.692;9.144;2022-10-16T08:16:54;17.50;97.20
2653;DHT22;1336;48.692;9.144;2022-10-16T08:17:45;17.50;97.20
2653;DHT22;1336;48.692;9.144;2022-10-16T08:18:45;17.50;97.20
2653;DHT22;1336;48.692;9.144;2022-10-16T08:19:37;17.50;97.20
2653;DHT22;1336;48.692;9.144;2022-10-16T08:20:29;17.60;97.20
2653;DHT22;1336;48.692;9.144;2022-10-16T08:21:22;17.60;97.20
2653;DHT22;1336;48.692;9.144;2022-10-16T08:22:13;17.60;97.20
2653;DHT22;1336;48.692;9.144;2022-10-16T08:23:07;17.60;97.20
2653;DHT22;1336;48.692;9.144;2022-10-16T08:23:57;17.60;97.20
2653;DHT22;1336;48.692;9.144;2022-10-16T08:24:50;17.60;97.20
2653;DHT22;1336;48.692;9.144;2022-10-16T08:25:41;17.60;97.20
2653;DHT22;1336;48.692;9.144;2022-10-16T08:26:33;17.70;97.20
2653;DHT22;1336;48.692;9.144;2022-10-16T08:27:24;17.70;97.20
2653;DHT22;1336;48.692;9.144;2022-10-16T08:28:16;17.70;97.20
2653;DHT22;1336;48.692;9.144;2022-10-16T08:29:07;17.70;97.20
2653;DHT22;1336;48.692;9.144;2022-10-16T08:29:58;17.80;97.20
2653;DHT22;1336;48.692;9.144;2022-10-16T08:30:49;17.80;97.20
2653;DHT22;1336;48.692;9.144;2022-10-16T08:31:41;17.80;97.20
2653;DHT22;1336;48.692;9.144;2022-10-16T08:32:32;17.90;97.20
2653;DHT22;1336;48.692;9.144;2022-10-16T08:33:24;17.90;97.20
2653;DHT22;1336;48.692;9.144;2022-10-16T08:34:14;17.90;97.20
2653;DHT22;1336;48.692;9.144;2022-10-16T08:35:06;17.90;97.20
2653;DHT22;1336;48.692;9.144;2022-10-16T08:35:57;18.00;97.20
2653;DHT22;1336;48.692;9.144;2022-10-16T08:36:49;18.00;97.20
2653;DHT22;1336;48.692;9.144;2022-10-16T08:37:40;18.00;97.20
2653;DHT22;1336;48.692;9.144;2022-10-16T08:38:34;18.00;97.20
2653;DHT22;1336;48.692;9.144;2022-10-16T08:39:24;18.00;97.20
2653;DHT22;1336;48.692;9.144;2022-10-16T08:40:19;18.00;97.20
2653;DHT22;1336;48.692;9.144;2022-10-16T08:41:31;18.00;97.20
2653;DHT22;1336;48.692;9.144;2022-10-16T08:42:35;18.10;97.20
2653;DHT22;1336;48.692;9.144;2022-10-16T08:43:39;18.10;97.20
2653;DHT22;1336;48.692;9.144;2022-10-16T08:46:27;18.10;97.20
2653;DHT22;1336;48.692;9.144;2022-10-16T08:47:25;18.10;97.20
2653;DHT22;1336;48.692;9.144;2022-10-16T08:48:20;18.20;97.20
2653;DHT22;1336;48.692;9.144;2022-10-16T08:49:14;18.20;97.20
2653;DHT22;1336;48.692;9.144;2022-10-16T08:50:09;18.20;97.20
2653;DHT22;1336;48.692;9.144;2022-10-16T08:51:02;18.20;97.20
2653;DHT22;1336;48.692;9.144;2022-10-16T08:51:55;18.20;97.20
2653;DHT22;1336;48.692;9.144;2022-10-16T08:52:47;18.20;97.20
2653;DHT22;1336;48.692;9.144;2022-10-16T08:53:49;18.20;97.20
2653;DHT22;1336;48.692;9.144;2022-10-16T08:54:43;18.20;97.20
2653;DHT22;1336;48.692;9.144;2022-10-16T08:55:41;18.20;97.20
2653;DHT22;1336;48.692;9.144;2022-10-16T08:56:33;18.20;97.20
2653;DHT22;1336;48.692;9.144;2022-10-16T08:57:25;18.20;97.20
2653;DHT22;1336;48.692;9.144;2022-10-16T08:58:18;18.20;97.20
2653;DHT22;1336;48.692;9.144;2022-10-16T08:59:10;18.20;97.20
2653;DHT22;1336;48.692;9.144;2022-10-16T09:00:12;18.20;97.20
2653;DHT22;1336;48.692;9.144;2022-10-16T09:01:09;18.20;97.20
2653;DHT22;1336;48.692;9.144;2022-10-16T09:02:03;18.20;97.20
2653;DHT22;1336;48.692;9.144;2022-10-16T09:03:10;18.30;97.20
2653;DHT22;1336;48.692;9.144;2022-10-16T09:05:42;18.30;97.20
2653;DHT22;1336;48.692;9.144;2022-10-16T09:06:42;18.30;97.20
2653;DHT22;1336;48.692;9.144;2022-10-16T09:07:43;18.30;97.20
2653;DHT22;1336;48.692;9.144;2022-10-16T09:08:44;18.40;97.20
2653;DHT22;1336;48.692;9.144;2022-10-16T09:09:53;18.40;97.20
2653;DHT22;1336;48.692;9.144;2022-10-16T09:10:52;18.40;97.20
2653;DHT22;1336;48.692;9.144;2022-10-16T09:11:50;18.40;97.20
2653;DHT22;1336;48.692;9.144;2022-10-16T09:12:48;18.40;97.20
2653;DHT22;1336;48.692;9.144;2022-10-16T09:13:49;18.40;97.20
2653;DHT22;1336;48.692;9.144;2022-10-16T09:14:50;18.50;97.20
2653;DHT22;1336;48.692;9.144;2022-10-16T09:15:47;18.50;97.20
2653;DHT22;1336;48.692;9.144;2022-10-16T09:16:46;18.50;97.20
2653;DHT22;1336;48.692;9.144;2022-10-16T09:17:48;18.60;97.20
2653;DHT22;1336;48.692;9.144;2022-10-16T09:18:45;18.60;97.20
2653;DHT22;1336;48.692;9.144;2022-10-16T09:19:44;18.60;97.20
2653;DHT22;1336;48.692;9.144;2022-10-16T09:20:44;18.60;97.20
2653;DHT22;1336;48.692;9.144;2022-10-16T09:21:41;18.70;97.20
2653;DHT22;1336;48.692;9.144;2022-10-16T09:22:33;18.70;97.20
2653;DHT22;1336;48.692;9.144;2022-10-16T09:23:26;18.70;97.20
2653;DHT22;1336;48.692;9.144;2022-10-16T09:24:22;18.70;97.20
2653;DHT22;1336;48.692;9.144;2022-10-16T09:25:15;18.80;97.20
2653;DHT22;1336;48.692;9.144;2022-10-16T09:26:11;18.80;97.20
2653;DHT22;1336;48.692;9.144;2022-10-16T09:27:02;18.90;97.20
2653;DHT22;1336;48.692;9.144;2022-10-16T09:27:53;19.00;97.20
2653;DHT22;1336;48.692;9.144;2022-10-16T09:28:44;19.10;97.20
2653;DHT22;1336;48.692;9.144;2022-10-16T09:29:36;19.20;97.20
2653;DHT22;1336;48.692;9.144;2022-10-16T09:30:29;19.30;97.20
2653;DHT22;1336;48.692;9.144;2022-10-16T09:31:22;19.50;97.20
2653;DHT22;1336;48.692;9.144;2022-10-16T09:32:15;19.60;97.20
2653;DHT22;1336;48.692;9.144;2022-10-16T09:33:10;19.70;97.20
2653;DHT22;1336;48.692;9.144;2022-10-16T09:34:03;19.70;97.20
2653;DHT22;1336;48.692;9.144;2022-10-16T09:34:56;19.80;97.20
2653;DHT22;1336;48.692;9.144;2022-10-16T09:35:50;19.80;97.20
2653;DHT22;1336;48.692;9.144;2022-10-16T09:36:45;19.90;97.20
2653;DHT22;1336;48.692;9.144;2022-10-16T09:37:36;20.00;97.20
2653;DHT22;1336;48.692;9.144;2022-10-16T09:38:29;20.20;97.20
2653;DHT22;1336;48.692;9.144;2022-10-16T09:39:22;20.30;97.20
2653;DHT22;1336;48.692;9.144;2022-10-16T09:40:27;20.40;97.20
2653;DHT22;1336;48.692;9.144;2022-10-16T09:41:21;20.50;97.20
2653;DHT22;1336;48.692;9.144;2022-10-16T09:42:16;20.60;97.20
2653;DHT22;1336;48.692;9.144;2022-10-16T09:43:19;20.70;97.20
2653;DHT22;1336;48.692;9.144;2022-10-16T09:44:20;20.70;97.20
2653;DHT22;1336;48.692;9.144;2022-10-16T09:45:21;20.80;97.20
2653;DHT22;1336;48.692;9.144;2022-10-16T09:46:24;20.90;97.20
2653;DHT22;1336;48.692;9.144;2022-10-16T09:47:18;20.90;97.20
2653;DHT22;1336;48.692;9.144;2022-10-16T09:48:11;20.90;97.20
2653;DHT22;1336;48.692;9.144;2022-10-16T09:49:05;21.00;97.20
2653;DHT22;1336;48.692;9.144;2022-10-16T09:49:57;21.10;97.20
2653;DHT22;1336;48.692;9.144;2022-10-16T09:50:59;21.30;97.20
2653;DHT22;1336;48.692;9.144;2022-10-16T09:51:51;21.50;97.20
2653;DHT22;1336;48.692;9.144;2022-10-16T09:53:04;21.60;97.20
2653;DHT22;1336;48.692;9.144;2022-10-16T09:53:59;21.70;97.20
2653;DHT22;1336;48.692;9.144;2022-10-16T09:54:54;21.80;97.20
2653;DHT22;1336;48.692;9.144;2022-10-16T09:55:48;21.90;97.20
2653;DHT22;1336;48.692;9.144;2022-10-16T09:56:41;22.00;97.20
2653;DHT22;1336;48.692;9.144;2022-10-16T09:57:34;22.00;97.20
2653;DHT22;1336;48.692;9.144;2022-10-16T09:58:25;22.10;97.20
2653;DHT22;1336;48.692;9.144;2022-10-16T09:59:18;22.20;97.20
2653;DHT22;1336;48.692;9.144;2022-10-16T10:00:10;22.40;97.20
2653;DHT22;1336;48.692;9.144;2022-10-16T10:01:01;22.50;97.20
2653;DHT22;1336;48.692;9.144;2022-10-16T10:01:54;22.60;97.20
2653;DHT22;1336;48.692;9.144;2022-10-16T10:02:46;22.80;97.20
2653;DHT22;1336;48.692;9.144;2022-10-16T10:03:39;22.90;97.20
2653;DHT22;1336;48.692;9.144;2022-10-16T10:04:40;23.00;97.20
2653;DHT22;1336;48.692;9.144;2022-10-16T10:05:32;23.00;97.20
2653;DHT22;1336;48.692;9.144;2022-10-16T10:06:25;23.10;97.20
2653;DHT22;1336;48.692;9.144;2022-10-16T10:07:20;23.10;97.20
2653;DHT22;1336;48.692;9.144;2022-10-16T10:08:16;23.00;97.20
2653;DHT22;1336;48.692;9.144;2022-10-16T10:09:17;23.00;97.20
2653;DHT22;1336;48.692;9.144;2022-10-16T10:10:21;23.00;97.20
2653;DHT22;1336;48.692;9.144;2022-10-16T10:11:13;23.00;97.20
2653;DHT22;1336;48.692;9.144;2022-10-16T10:12:05;23.10;97.20
2653;DHT22;1336;48.692;9.144;2022-10-16T10:12:58;23.20;97.20
2653;DHT22;1336;48.692;9.144;2022-10-16T10:13:49;23.30;97.20
2653;DHT22;1336;48.692;9.144;2022-10-16T10:14:45;23.40;97.20
2653;DHT22;1336;48.692;9.144;2022-10-16T10:15:41;23.50;97.20
2653;DHT22;1336;48.692;9.144;2022-10-16T10:16:33;23.60;97.20
2653;DHT22;1336;48.692;9.144;2022-10-16T10:17:25;23.70;97.20
2653;DHT22;1336;48.692;9.144;2022-10-16T10:18:18;23.70;97.20
2653;DHT22;1336;48.692;9.144;2022-10-16T10:19:15;23.80;97.20
2653;DHT22;1336;48.692;9.144;2022-10-16T10:20:22;23.90;97.20
2653;DHT22;1336;48.692;9.144;2022-10-16T10:21:15;24.00;97.20
2653;DHT22;1336;48.692;9.144;2022-10-16T10:22:17;24.10;97.20
2653;DHT22;1336;48.692;9.144;2022-10-16T10:23:21;24.30;97.20
2653;DHT22;1336;48.692;9.144;2022-10-16T10:24:13;24.40;97.20
2653;DHT22;1336;48.692;9.144;2022-10-16T10:25:26;24.50;97.20
2653;DHT22;1336;48.692;9.144;2022-10-16T10:26:26;24.70;97.20
2653;DHT22;1336;48.692;9.144;2022-10-16T10:27:18;24.80;97.20
2653;DHT22;1336;48.692;9.144;2022-10-16T10:28:21;24.90;97.20
2653;DHT22;1336;48.692;9.144;2022-10-16T10:29:23;25.00;97.20
2653;DHT22;1336;48.692;9.144;2022-10-16T10:30:21;25.00;97.20
2653;DHT22;1336;48.692;9.144;2022-10-16T10:31:17;24.90;97.20
2653;DHT22;1336;48.692;9.144;2022-10-16T10:32:21;24.80;97.20
2653;DHT22;1336;48.692;9.144;2022-10-16T10:33:24;24.70;97.20
2653;DHT22;1336;48.692;9.144;2022-10-16T10:34:30;24.50;97.20
2653;DHT22;1336;48.692;9.144;2022-10-16T10:35:31;24.40;97.20
2653;DHT22;1336;48.692;9.144;2022-10-16T10:36:32;24.30;97.20
2653;DHT22;1336;48.692;9.144;2022-10-16T10:37:35;24.20;97.20
2653;DHT22;1336;48.692;9.144;2022-10-16T10:38:40;24.20;97.20
2653;DHT22;1336;48.692;9.144;2022-10-16T10:39:38;24.10;97.20
2653;DHT22;1336;48.692;9.144;2022-10-16T10:40:43;24.10;97.20
2653;DHT22;1336;48.692;9.144;2022-10-16T10:42:02;24.00;97.20
2653;DHT22;1336;48.692;9.144;2022-10-16T10:43:09;23.90;97.20
2653;DHT22;1336;48.692;9.144;2022-10-16T10:44:10;23.90;97.20
2653;DHT22;1336;48.692;9.144;2022-10-16T10:45:18;23.80;97.20
2653;DHT22;1336;48.692;9.144;2022-10-16T10:46:14;23.80;97.20
2653;DHT22;1336;48.692;9.144;2022-10-16T10:47:18;23.80;97.20
2653;DHT22;1336;48.692;9.144;2022-10-16T10:48:24;23.80;97.20
2653;DHT22;1336;48.692;9.144;2022-10-16T10:49:28;23.80;97.20
2653;DHT22;1336;48.692;9.144;2022-10-16T10:50:26;23.80;97.20
2653;DHT22;1336;48.692;9.144;2022-10-16T10:51:28;23.70;97.20
2653;DHT22;1336;48.692;9.144;2022-10-16T10:52:37;23.80;97.20
2653;DHT22;1336;48.692;9.144;2022-10-16T10:53:40;23.90;97.20
2653;DHT22;1336;48.692;9.144;2022-10-16T10:54:40;24.20;97.20
2653;DHT22;1336;48.692;9.144;2022-10-16T10:55:42;24.40;97.20